Time;durP1;ratioP1;P1;durP2;ratioP2;P2;SDS_P1;SDS_P2;PMS_P1;PMS_P2;Temp;Humidity;BMP_temperature;BMP_pressure;BME280_temperature;BME280_humidity;BME280_pressure;Samples;Min_cycle;Max_cycle;Signal;HPM_P1;HPM_P2
2023/09/29 00:00:17;;;;;;;21.30;7.95;;;;;;;;;;5012531;28;20026;-68
2023/09/29 00:02:44;;;;;;;13.52;7.20;;;;;;;;;;5013174;28;20059;-67
2023/09/29 00:05:10;;;;;;;19.17;7.07;;;;;;;;;;5013314;28;20022;-67
2023/09/29 00:07:35;;;;;;;15.88;6.13;;;;;;;;;;5027799;28;20468;-67
2023/09/29 00:10:01;;;;;;;20.65;5.30;;;;;;;;;;5031422;28;20395;-67
2023/09/29 00:12:26;;;;;;;19.33;5.93;;;;;;;;;;5031808;28;20467;-67
2023/09/29 00:14:52;;;;;;;13.18;5.45;;;;;;;;;;5031786;28;20556;-67
2023/09/29 00:17:17;;;;;;;16.75;5.88;;;;;;;;;;5032632;28;20441;-68
2023/09/29 00:19:42;;;;;;;14.15;5.00;;;;;;;;;;5027961;28;20472;-67
2023/09/29 00:22:09;;;;;;;16.40;6.45;;;;;;;;;;5028814;28;20032;-67
2023/09/29 00:24:34;;;;;;;12.20;5.55;;;;;;;;;;5033108;28;20030;-67
2023/09/29 00:26:59;;;;;;;9.13;4.60;;;;;;;;;;5030755;28;20017;-67
2023/09/29 00:29:25;;;;;;;14.18;5.22;;;;;;;;;;5027449;28;20037;-67
2023/09/29 00:31:50;;;;;;;11.70;6.00;;;;;;;;;;5031573;28;20075;-67
2023/09/29 00:34:15;;;;;;;16.70;7.32;;;;;;;;;;5015361;28;20548;-67
2023/09/29 00:36:42;;;;;;;12.18;5.70;;;;;;;;;;5016472;28;20030;-67
2023/09/29 00:39:11;;;;;;;22.88;8.77;;;;;;;;;;5016730;28;20033;-67
2023/09/29 00:41:37;;;;;;;22.23;6.55;;;;;;;;;;5016560;28;20026;-68
2023/09/29 00:44:03;;;;;;;21.20;7.40;;;;;;;;;;5016552;28;20394;-67
2023/09/29 00:46:29;;;;;;;23.90;7.80;;;;;;;;;;5016174;28;20030;-68
2023/09/29 00:48:55;;;;;;;26.38;7.82;;;;;;;;;;5016595;28;20560;-68
2023/09/29 00:51:21;;;;;;;25.95;8.30;;;;;;;;;;5012104;28;20101;-67
2023/09/29 00:53:48;;;;;;;24.83;9.15;;;;;;;;;;4995452;28;20110;-67
2023/09/29 00:56:13;;;;;;;21.58;7.85;;;;;;;;;;4996336;28;20026;-67
2023/09/29 00:58:39;;;;;;;28.70;9.25;;;;;;;;;;5007981;28;20083;-68
2023/09/29 01:01:07;;;;;;;19.08;7.97;;;;;;;;;;5034859;28;20029;-67
2023/09/29 01:03:32;;;;;;;28.33;8.93;;;;;;;;;;5035961;28;20021;-67
2023/09/29 01:05:58;;;;;;;26.88;8.63;;;;;;;;;;5030561;28;20026;-68
2023/09/29 01:08:23;;;;;;;26.00;8.95;;;;;;;;;;5031948;28;20021;-67
2023/09/29 01:10:49;;;;;;;26.95;8.55;;;;;;;;;;5034618;28;20032;-68
2023/09/29 01:13:15;;;;;;;32.42;10.32;;;;;;;;;;5035680;28;20088;-68
2023/09/29 01:15:40;;;;;;;30.50;7.80;;;;;;;;;;5025561;28;20017;-68
2023/09/29 01:18:07;;;;;;;28.55;7.55;;;;;;;;;;5015650;28;20416;-67
2023/09/29 01:20:32;;;;;;;20.52;7.80;;;;;;;;;;5013723;28;20076;-68
2023/09/29 01:23:00;;;;;;;20.30;8.70;;;;;;;;;;5015993;28;20034;-67
2023/09/29 01:25:25;;;;;;;29.63;8.27;;;;;;;;;;5014222;28;20064;-68
2023/09/29 01:27:52;;;;;;;30.20;8.07;;;;;;;;;;5015780;28;20022;-67
2023/09/29 01:30:18;;;;;;;20.92;8.30;;;;;;;;;;5014487;28;20030;-68
2023/09/29 01:32:46;;;;;;;24.70;8.32;;;;;;;;;;5011334;28;20056;-68
2023/09/29 01:35:11;;;;;;;25.77;9.32;;;;;;;;;;5014244;28;20109;-68
2023/09/29 01:37:38;;;;;;;30.70;8.90;;;;;;;;;;5011207;28;20117;-67
2023/09/29 01:40:06;;;;;;;22.23;7.47;;;;;;;;;;5014377;28;20500;-68
2023/09/29 01:42:31;;;;;;;20.73;8.40;;;;;;;;;;5011354;28;20060;-67
2023/09/29 01:44:57;;;;;;;18.63;7.80;;;;;;;;;;5001443;28;20116;-67
2023/09/29 01:47:22;;;;;;;30.63;8.55;;;;;;;;;;4994306;28;20022;-68
2023/09/29 01:49:48;;;;;;;22.15;7.97;;;;;;;;;;5005907;28;20484;-68
2023/09/29 01:52:14;;;;;;;24.75;7.55;;;;;;;;;;5012235;28;20037;-68
2023/09/29 01:54:39;;;;;;;19.83;8.30;;;;;;;;;;5014878;28;20017;-68
2023/09/29 01:57:04;;;;;;;19.27;6.63;;;;;;;;;;5012519;28;20037;-68
2023/09/29 01:59:30;;;;;;;25.85;7.82;;;;;;;;;;5014275;28;20026;-68
2023/09/29 02:01:56;;;;;;;21.33;7.55;;;;;;;;;;5014847;28;20049;-68
2023/09/29 02:04:21;;;;;;;22.60;8.55;;;;;;;;;;5009182;28;20036;-68
2023/09/29 02:06:49;;;;;;;22.10;7.90;;;;;;;;;;4995407;28;20030;-67
2023/09/29 02:09:14;;;;;;;31.52;7.38;;;;;;;;;;4994637;28;20474;-68
2023/09/29 02:11:41;;;;;;;23.60;9.02;;;;;;;;;;5027150;28;20030;-68
2023/09/29 02:14:09;;;;;;;23.25;7.90;;;;;;;;;;5014565;28;20025;-68
2023/09/29 02:16:34;;;;;;;33.50;7.78;;;;;;;;;;5014603;28;20022;-68
2023/09/29 02:19:00;;;;;;;25.98;8.13;;;;;;;;;;5014351;28;20025;-68
2023/09/29 02:21:28;;;;;;;19.55;7.03;;;;;;;;;;5014177;28;20500;-68
2023/09/29 02:23:55;;;;;;;24.23;8.07;;;;;;;;;;5014514;28;20076;-68
2023/09/29 02:26:22;;;;;;;22.48;8.27;;;;;;;;;;5014355;28;20104;-68
2023/09/29 02:28:48;;;;;;;24.80;8.57;;;;;;;;;;5014622;28;20199;-68
2023/09/29 02:31:14;;;;;;;26.33;8.20;;;;;;;;;;5014486;28;20079;-68
2023/09/29 02:33:40;;;;;;;26.50;7.60;;;;;;;;;;5021481;28;20022;-67
2023/09/29 02:36:06;;;;;;;23.23;7.63;;;;;;;;;;5001543;28;20026;-68
2023/09/29 02:38:31;;;;;;;20.30;7.68;;;;;;;;;;4994563;28;20110;-68
2023/09/29 02:40:57;;;;;;;23.30;10.18;;;;;;;;;;5002392;28;20056;-68
2023/09/29 02:43:24;;;;;;;17.05;7.60;;;;;;;;;;5014358;28;20053;-68
2023/09/29 02:45:50;;;;;;;20.15;7.32;;;;;;;;;;5013480;28;20032;-68
2023/09/29 02:48:15;;;;;;;18.85;8.90;;;;;;;;;;5006997;28;20018;-68
2023/09/29 02:50:40;;;;;;;15.13;6.70;;;;;;;;;;4994547;28;20400;-68
2023/09/29 02:53:07;;;;;;;20.25;7.63;;;;;;;;;;5010113;28;20029;-68
2023/09/29 02:55:33;;;;;;;23.08;7.60;;;;;;;;;;5013155;28;20179;-68
2023/09/29 02:57:58;;;;;;;20.98;7.00;;;;;;;;;;5014126;28;20513;-68
2023/09/29 03:00:27;;;;;;;22.13;7.22;;;;;;;;;;5012715;28;20026;-68
2023/09/29 03:02:52;;;;;;;17.67;7.05;;;;;;;;;;5013996;28;20125;-68
2023/09/29 03:05:21;;;;;;;23.45;8.48;;;;;;;;;;5014555;28;20487;-68
2023/09/29 03:07:46;;;;;;;20.00;7.45;;;;;;;;;;5009947;28;20544;-68
2023/09/29 03:10:13;;;;;;;18.33;6.70;;;;;;;;;;5006919;28;20053;-68
2023/09/29 03:12:38;;;;;;;22.35;7.85;;;;;;;;;;5022229;28;20014;-67
2023/09/29 03:15:08;;;;;;;25.52;8.52;;;;;;;;;;4994330;28;20522;-68
2023/09/29 03:17:34;;;;;;;23.60;7.88;;;;;;;;;;4993877;28;20480;-67
2023/09/29 03:19:59;;;;;;;21.63;7.63;;;;;;;;;;4999009;28;20511;-67
2023/09/29 03:22:25;;;;;;;26.38;8.00;;;;;;;;;;5010049;28;20061;-67
2023/09/29 03:24:50;;;;;;;20.38;8.80;;;;;;;;;;5012233;28;20523;-67
2023/09/29 03:27:17;;;;;;;21.33;7.97;;;;;;;;;;5027005;28;20029;-67
2023/09/29 03:29:43;;;;;;;19.85;7.63;;;;;;;;;;5032297;28;20025;-68
2023/09/29 03:32:09;;;;;;;22.15;7.10;;;;;;;;;;5042907;28;20079;-67
2023/09/29 03:34:34;;;;;;;22.52;8.77;;;;;;;;;;5013828;28;20030;-67
2023/09/29 03:36:59;;;;;;;22.48;6.88;;;;;;;;;;5013030;28;20034;-67
2023/09/29 03:39:25;;;;;;;15.15;6.28;;;;;;;;;;5006052;28;20035;-68
2023/09/29 03:41:51;;;;;;;23.83;7.35;;;;;;;;;;5005742;28;20499;-67
2023/09/29 03:44:16;;;;;;;19.90;8.80;;;;;;;;;;5014160;28;20029;-67
2023/09/29 03:46:41;;;;;;;22.92;8.10;;;;;;;;;;5011584;28;20025;-67
2023/09/29 03:49:10;;;;;;;23.10;7.97;;;;;;;;;;5013398;28;20425;-67
2023/09/29 03:51:35;;;;;;;22.98;8.27;;;;;;;;;;5013135;28;20033;-69
2023/09/29 03:54:00;;;;;;;14.35;7.88;;;;;;;;;;5000607;28;20030;-68
2023/09/29 03:56:26;;;;;;;18.42;7.85;;;;;;;;;;4998900;28;20022;-68
2023/09/29 03:58:55;;;;;;;23.05;8.80;;;;;;;;;;4992980;28;20046;-68
2023/09/29 04:01:21;;;;;;;19.58;8.10;;;;;;;;;;4998544;28;20026;-68
2023/09/29 04:03:46;;;;;;;25.42;8.32;;;;;;;;;;4992337;28;20030;-68
2023/09/29 04:06:11;;;;;;;20.48;7.93;;;;;;;;;;5006839;28;20068;-68
2023/09/29 04:08:37;;;;;;;19.20;6.63;;;;;;;;;;5014153;28;20395;-68
2023/09/29 04:11:02;;;;;;;20.98;8.55;;;;;;;;;;5021052;28;20037;-68
2023/09/29 04:13:28;;;;;;;15.32;7.43;;;;;;;;;;5037009;28;20099;-68
2023/09/29 04:15:53;;;;;;;25.08;7.47;;;;;;;;;;5035478;28;20083;-68
2023/09/29 04:18:18;;;;;;;27.40;8.18;;;;;;;;;;5021810;28;20109;-68
2023/09/29 04:20:43;;;;;;;23.77;7.15;;;;;;;;;;5016807;28;20026;-68
2023/09/29 04:23:09;;;;;;;18.48;6.68;;;;;;;;;;5012930;28;20033;-68
2023/09/29 04:25:34;;;;;;;19.10;7.03;;;;;;;;;;4996844;28;20534;-68
2023/09/29 04:27:59;;;;;;;17.77;7.38;;;;;;;;;;5016933;28;20030;-68
2023/09/29 04:30:25;;;;;;;24.85;7.43;;;;;;;;;;5016815;28;20030;-68
2023/09/29 04:32:52;;;;;;;19.35;7.28;;;;;;;;;;5016419;28;20420;-68
2023/09/29 04:35:17;;;;;;;16.77;6.93;;;;;;;;;;5015314;28;20144;-68
2023/09/29 04:37:43;;;;;;;14.90;7.30;;;;;;;;;;5016101;28;20499;-68
2023/09/29 04:40:08;;;;;;;22.38;7.72;;;;;;;;;;5016168;28;20548;-68
2023/09/29 04:42:34;;;;;;;24.65;8.82;;;;;;;;;;5003804;28;20030;-68
2023/09/29 04:44:59;;;;;;;16.13;7.90;;;;;;;;;;4995437;28;20396;-68
2023/09/29 04:47:25;;;;;;;20.05;7.95;;;;;;;;;;5005247;28;20029;-68
2023/09/29 04:49:52;;;;;;;29.55;8.20;;;;;;;;;;5036260;28;20063;-68
2023/09/29 04:52:17;;;;;;;22.23;6.75;;;;;;;;;;5018265;28;20036;-68
2023/09/29 04:54:43;;;;;;;26.80;9.73;;;;;;;;;;5015519;28;20022;-68
2023/09/29 04:57:09;;;;;;;26.00;9.23;;;;;;;;;;5011394;28;20037;-68
2023/09/29 04:59:34;;;;;;;28.10;7.68;;;;;;;;;;4996565;28;20034;-68
2023/09/29 05:01:59;;;;;;;14.32;7.50;;;;;;;;;;5009445;28;20498;-68
2023/09/29 05:04:25;;;;;;;24.15;9.25;;;;;;;;;;5025482;28;20026;-68
2023/09/29 05:06:51;;;;;;;30.58;8.73;;;;;;;;;;5035526;28;20025;-68
2023/09/29 05:09:17;;;;;;;23.02;7.68;;;;;;;;;;5032581;28;20021;-68
2023/09/29 05:11:42;;;;;;;19.00;8.25;;;;;;;;;;5015998;28;20025;-68
2023/09/29 05:14:07;;;;;;;27.15;9.18;;;;;;;;;;5015260;28;20037;-67
2023/09/29 05:16:33;;;;;;;23.60;9.80;;;;;;;;;;5015756;28;20542;-68
2023/09/29 05:18:59;;;;;;;24.10;8.73;;;;;;;;;;5015505;28;20021;-67
2023/09/29 05:21:24;;;;;;;23.80;8.13;;;;;;;;;;5013742;28;20476;-68
2023/09/29 05:23:49;;;;;;;18.20;8.23;;;;;;;;;;5024602;28;20021;-68
2023/09/29 05:26:15;;;;;;;22.08;8.88;;;;;;;;;;5028969;28;20080;-68
2023/09/29 05:28:40;;;;;;;21.92;8.15;;;;;;;;;;5015282;28;20464;-68
2023/09/29 05:31:05;;;;;;;15.63;8.65;;;;;;;;;;5015671;28;20026;-68
2023/09/29 05:33:31;;;;;;;25.25;9.27;;;;;;;;;;5015649;28;20105;-67
2023/09/29 05:35:57;;;;;;;17.55;7.97;;;;;;;;;;5014550;28;20091;-68
2023/09/29 05:38:23;;;;;;;17.25;9.02;;;;;;;;;;5008314;28;20615;-68
2023/09/29 05:40:49;;;;;;;21.25;9.00;;;;;;;;;;5000237;28;20046;-68
2023/09/29 05:43:15;;;;;;;15.20;8.45;;;;;;;;;;5000952;28;20076;-68
2023/09/29 05:45:41;;;;;;;20.08;8.93;;;;;;;;;;4994746;28;20160;-68
2023/09/29 05:48:06;;;;;;;17.92;8.45;;;;;;;;;;5013045;28;20105;-67
2023/09/29 05:50:32;;;;;;;24.60;8.95;;;;;;;;;;5015048;28;20037;-68
2023/09/29 05:52:58;;;;;;;23.98;9.32;;;;;;;;;;5007821;28;20566;-68
2023/09/29 05:55:23;;;;;;;24.25;10.38;;;;;;;;;;4996881;28;20058;-68
2023/09/29 05:57:52;;;;;;;21.00;9.38;;;;;;;;;;5013494;28;20416;-67
2023/09/29 06:00:18;;;;;;;22.45;9.05;;;;;;;;;;5014362;28;20033;-68
2023/09/29 06:02:43;;;;;;;20.27;8.75;;;;;;;;;;5010430;28;20026;-68
2023/09/29 06:05:10;;;;;;;27.27;8.88;;;;;;;;;;4995563;28;20058;-68
2023/09/29 06:07:35;;;;;;;24.40;9.57;;;;;;;;;;4996701;28;20152;-68
2023/09/29 06:10:01;;;;;;;20.67;8.73;;;;;;;;;;5000846;28;20113;-68
2023/09/29 06:12:26;;;;;;;15.70;7.80;;;;;;;;;;5010038;28;20026;-67
2023/09/29 06:14:51;;;;;;;23.17;8.55;;;;;;;;;;5014290;28;20468;-67
2023/09/29 06:17:17;;;;;;;17.15;8.10;;;;;;;;;;5014228;28;20033;-67
2023/09/29 06:19:42;;;;;;;21.55;9.77;;;;;;;;;;5014473;28;20026;-67
2023/09/29 06:22:07;;;;;;;21.27;9.93;;;;;;;;;;5013663;28;20045;-68
2023/09/29 06:24:33;;;;;;;22.23;10.35;;;;;;;;;;5014276;28;20076;-67
2023/09/29 06:26:58;;;;;;;25.10;10.30;;;;;;;;;;5023740;28;20406;-67
2023/09/29 06:29:23;;;;;;;25.02;10.43;;;;;;;;;;5033333;28;20036;-68
2023/09/29 06:31:49;;;;;;;22.08;10.80;;;;;;;;;;5031523;28;20048;-67
2023/09/29 06:34:14;;;;;;;20.58;10.75;;;;;;;;;;5014310;28;20042;-67
2023/09/29 06:36:39;;;;;;;20.88;9.50;;;;;;;;;;5014051;28;20029;-67
2023/09/29 06:39:05;;;;;;;26.42;11.45;;;;;;;;;;5014641;28;20037;-68
2023/09/29 06:41:30;;;;;;;26.42;10.95;;;;;;;;;;5013559;28;20443;-68
2023/09/29 06:43:55;;;;;;;22.77;12.07;;;;;;;;;;5014112;28;20022;-67
2023/09/29 06:46:21;;;;;;;22.83;11.98;;;;;;;;;;5013323;28;20562;-67
2023/09/29 06:48:46;;;;;;;23.45;11.98;;;;;;;;;;5014805;28;20022;-67
2023/09/29 06:51:11;;;;;;;24.52;13.30;;;;;;;;;;5013174;28;20484;-67
2023/09/29 06:53:37;;;;;;;24.85;13.38;;;;;;;;;;5013807;28;20037;-67
2023/09/29 06:56:02;;;;;;;24.15;11.55;;;;;;;;;;5013707;28;20037;-68
2023/09/29 06:58:28;;;;;;;26.80;12.50;;;;;;;;;;5013849;28;20045;-68
2023/09/29 07:00:55;;;;;;;27.50;13.85;;;;;;;;;;5012943;28;20026;-68
2023/09/29 07:03:21;;;;;;;26.33;14.10;;;;;;;;;;5013518;28;20095;-68
2023/09/29 07:05:46;;;;;;;27.38;13.27;;;;;;;;;;5030572;28;20475;-68
2023/09/29 07:08:18;;;;;;;32.50;14.00;;;;;;;;;;5031933;28;20021;-67
2023/09/29 07:10:43;;;;;;;30.45;15.23;;;;;;;;;;5008520;28;20087;-67
2023/09/29 07:13:09;;;;;;;34.70;13.88;;;;;;;;;;5014855;28;20025;-68
2023/09/29 07:15:37;;;;;;;26.63;14.27;;;;;;;;;;5026303;28;20128;-68
2023/09/29 07:18:03;;;;;;;31.58;14.63;;;;;;;;;;5021202;28;20080;-68
2023/09/29 07:20:30;;;;;;;35.00;15.40;;;;;;;;;;5025664;28;20033;-68
2023/09/29 07:22:56;;;;;;;33.63;15.13;;;;;;;;;;5021068;28;20033;-67
2023/09/29 07:25:22;;;;;;;30.20;15.75;;;;;;;;;;5008985;28;20161;-68
2023/09/29 07:27:47;;;;;;;32.63;15.32;;;;;;;;;;5009667;28;20029;-67
2023/09/29 07:30:13;;;;;;;25.58;16.60;;;;;;;;;;5012137;28;20022;-67
2023/09/29 07:32:41;;;;;;;35.00;15.60;;;;;;;;;;5008563;28;20073;-67
2023/09/29 07:35:07;;;;;;;33.72;16.65;;;;;;;;;;4992461;28;20023;-68
2023/09/29 07:37:33;;;;;;;31.27;17.60;;;;;;;;;;4993616;28;20395;-67
2023/09/29 07:39:58;;;;;;;33.17;14.63;;;;;;;;;;5008938;28;20111;-67
2023/09/29 07:42:23;;;;;;;36.95;17.33;;;;;;;;;;5019650;28;20021;-67
2023/09/29 07:44:49;;;;;;;28.98;15.52;;;;;;;;;;5029972;28;20032;-68
2023/09/29 07:47:14;;;;;;;30.52;14.18;;;;;;;;;;5032310;28;20395;-68
2023/09/29 07:49:40;;;;;;;30.40;16.95;;;;;;;;;;5031068;28;20080;-68
2023/09/29 07:52:08;;;;;;;38.92;17.17;;;;;;;;;;5018197;28;20030;-68
2023/09/29 07:54:36;;;;;;;30.50;16.63;;;;;;;;;;5012945;28;20476;-67
2023/09/29 07:57:02;;;;;;;37.35;17.35;;;;;;;;;;5011320;28;20041;-68
2023/09/29 07:59:27;;;;;;;28.13;14.35;;;;;;;;;;5012761;28;20368;-68
2023/09/29 08:01:53;;;;;;;32.45;15.95;;;;;;;;;;5011458;28;20037;-68
2023/09/29 08:04:19;;;;;;;32.47;16.88;;;;;;;;;;5012562;28;20017;-68
2023/09/29 08:06:44;;;;;;;31.55;14.68;;;;;;;;;;5012347;28;20491;-68
2023/09/29 08:09:12;;;;;;;28.20;15.40;;;;;;;;;;5011802;28;20022;-68
2023/09/29 08:11:38;;;;;;;30.00;15.88;;;;;;;;;;5012772;28;20044;-68
2023/09/29 08:14:04;;;;;;;31.88;15.02;;;;;;;;;;5011185;28;20476;-67
2023/09/29 08:16:29;;;;;;;25.33;14.00;;;;;;;;;;5012482;28;20399;-68
2023/09/29 08:18:55;;;;;;;30.17;16.17;;;;;;;;;;5008132;28;20022;-67
2023/09/29 08:21:20;;;;;;;28.88;14.70;;;;;;;;;;4993002;28;20492;-67
2023/09/29 08:23:45;;;;;;;37.97;15.75;;;;;;;;;;5002350;28;20435;-68
2023/09/29 08:26:10;;;;;;;30.42;15.63;;;;;;;;;;5012660;28;20029;-68
2023/09/29 08:28:36;;;;;;;31.70;15.05;;;;;;;;;;5011667;28;20037;-68
2023/09/29 08:31:02;;;;;;;27.13;14.65;;;;;;;;;;5012793;28;20018;-68
2023/09/29 08:33:29;;;;;;;30.35;14.30;;;;;;;;;;5012793;28;20106;-68
2023/09/29 08:35:57;;;;;;;30.90;14.27;;;;;;;;;;5012517;28;20026;-68
2023/09/29 08:38:22;;;;;;;32.42;15.23;;;;;;;;;;5007059;28;20069;-69
2023/09/29 08:40:54;;;;;;;33.83;14.65;;;;;;;;;;4993363;28;20496;-69
2023/09/29 08:43:21;;;;;;;28.75;14.43;;;;;;;;;;4991992;28;20077;-69
2023/09/29 08:45:48;;;;;;;32.92;14.15;;;;;;;;;;4991850;28;20026;-69
2023/09/29 08:48:13;;;;;;;22.33;11.43;;;;;;;;;;5011095;28;20030;-68
2023/09/29 08:50:43;;;;;;;25.75;10.80;;;;;;;;;;5007747;28;20484;-69
2023/09/29 08:53:10;;;;;;;21.60;9.77;;;;;;;;;;5031719;28;20033;-69
2023/09/29 08:55:37;;;;;;;17.23;8.57;;;;;;;;;;5032811;28;20025;-69
2023/09/29 08:58:02;;;;;;;19.30;7.90;;;;;;;;;;5016142;28;20025;-68
2023/09/29 09:00:28;;;;;;;22.73;8.82;;;;;;;;;;5014683;28;20059;-68
2023/09/29 09:02:54;;;;;;;22.35;10.05;;;;;;;;;;5010872;28;20019;-69
2023/09/29 09:05:21;;;;;;;22.65;10.50;;;;;;;;;;5028893;28;20025;-69
2023/09/29 09:07:46;;;;;;;20.95;11.45;;;;;;;;;;5035915;28;20022;-69
2023/09/29 09:10:12;;;;;;;31.60;12.35;;;;;;;;;;5034974;28;20031;-69
2023/09/29 09:12:40;;;;;;;33.90;14.15;;;;;;;;;;5036592;28;20052;-69
2023/09/29 09:15:07;;;;;;;29.40;14.60;;;;;;;;;;5035743;28;20022;-69
2023/09/29 09:17:34;;;;;;;32.03;14.38;;;;;;;;;;5019413;28;20108;-68
2023/09/29 09:20:00;;;;;;;30.10;15.63;;;;;;;;;;5014300;28;20030;-69
2023/09/29 09:22:27;;;;;;;31.00;16.70;;;;;;;;;;5016049;28;20079;-68
2023/09/29 09:24:59;;;;;;;33.38;16.90;;;;;;;;;;5015528;28;20069;-68
2023/09/29 09:27:25;;;;;;;31.17;17.02;;;;;;;;;;5015478;28;20480;-68
2023/09/29 09:29:50;;;;;;;38.08;17.02;;;;;;;;;;5013707;28;20108;-68
2023/09/29 09:32:24;;;;;;;31.27;17.42;;;;;;;;;;5015235;28;20075;-68
2023/09/29 09:34:50;;;;;;;32.10;17.45;;;;;;;;;;5014158;28;20026;-68
2023/09/29 09:37:23;;;;;;;30.83;15.77;;;;;;;;;;5013670;28;20029;-68
2023/09/29 09:39:49;;;;;;;34.42;14.25;;;;;;;;;;5014313;28;20033;-68
2023/09/29 09:42:15;;;;;;;30.50;15.57;;;;;;;;;;5010670;28;20019;-68
2023/09/29 09:44:42;;;;;;;30.98;14.23;;;;;;;;;;4993838;28;20030;-68
2023/09/29 09:47:12;;;;;;;36.03;14.85;;;;;;;;;;4999670;28;20044;-68
2023/09/29 09:49:45;;;;;;;29.85;13.57;;;;;;;;;;5014067;28;20049;-68
2023/09/29 09:52:15;;;;;;;33.83;13.05;;;;;;;;;;5014370;28;20109;-68
2023/09/29 09:54:48;;;;;;;22.98;13.57;;;;;;;;;;5016043;28;20029;-68
2023/09/29 09:57:20;;;;;;;31.48;13.50;;;;;;;;;;5013142;28;20034;-68
2023/09/29 09:59:45;;;;;;;32.22;14.07;;;;;;;;;;5013842;28;20026;-68
2023/09/29 10:02:11;;;;;;;25.83;13.77;;;;;;;;;;5011290;28;20097;-68
2023/09/29 10:04:40;;;;;;;26.50;12.60;;;;;;;;;;5034494;28;20025;-68
2023/09/29 10:07:06;;;;;;;31.88;13.05;;;;;;;;;;5032500;28;20029;-68
2023/09/29 10:09:46;;;;;;;23.30;12.95;;;;;;;;;;5031924;28;20044;-68
2023/09/29 10:12:28;;;;;;;25.17;12.77;;;;;;;;;;5032206;28;20029;-70
2023/09/29 10:14:55;;;;;;;24.58;12.38;;;;;;;;;;5032964;28;20105;-69
2023/09/29 10:17:21;;;;;;;21.45;11.38;;;;;;;;;;5033969;28;20021;-69
2023/09/29 10:19:51;;;;;;;23.23;11.85;;;;;;;;;;5034548;28;20442;-69
2023/09/29 10:22:28;;;;;;;30.20;13.60;;;;;;;;;;5033045;28;20032;-69
2023/09/29 10:24:59;;;;;;;25.08;12.77;;;;;;;;;;5027103;28;20055;-69
2023/09/29 10:27:30;;;;;;;26.10;12.95;;;;;;;;;;5033761;28;20063;-69
2023/09/29 10:30:16;;;;;;;24.05;12.05;;;;;;;;;;5034056;28;20021;-69
2023/09/29 10:32:45;;;;;;;27.38;12.82;;;;;;;;;;5028507;28;20029;-70
2023/09/29 10:35:18;;;;;;;29.05;12.60;;;;;;;;;;4998904;28;20033;-68
2023/09/29 10:37:45;;;;;;;26.45;11.73;;;;;;;;;;5006256;28;20071;-69
2023/09/29 10:40:20;;;;;;;25.02;14.30;;;;;;;;;;5002171;28;20029;-69
2023/09/29 10:42:47;;;;;;;22.27;11.80;;;;;;;;;;5010040;28;20014;-68
2023/09/29 10:45:24;;;;;;;30.00;13.32;;;;;;;;;;4990457;28;20014;-69
2023/09/29 10:47:49;;;;;;;24.90;12.02;;;;;;;;;;5017056;28;20029;-69
2023/09/29 10:50:14;;;;;;;24.77;12.25;;;;;;;;;;5004051;28;20026;-69
2023/09/29 10:52:40;;;;;;;24.80;14.40;;;;;;;;;;5001643;28;20026;-69
2023/09/29 10:55:06;;;;;;;31.88;13.63;;;;;;;;;;5007030;28;20416;-69
2023/09/29 10:57:33;;;;;;;23.92;12.10;;;;;;;;;;4993708;28;20068;-69
2023/09/29 11:00:00;;;;;;;27.60;11.40;;;;;;;;;;5014048;28;20021;-68
2023/09/29 11:02:30;;;;;;;22.67;11.80;;;;;;;;;;5018394;28;20018;-68
2023/09/29 11:04:57;;;;;;;27.17;10.98;;;;;;;;;;5019803;28;20022;-68
2023/09/29 11:07:23;;;;;;;16.58;10.40;;;;;;;;;;5017495;28;20076;-68
2023/09/29 11:09:48;;;;;;;20.65;11.10;;;;;;;;;;5013551;28;20025;-68
2023/09/29 11:12:17;;;;;;;20.08;10.98;;;;;;;;;;4994210;28;20397;-68
2023/09/29 11:14:43;;;;;;;24.55;10.52;;;;;;;;;;5008551;28;20028;-68
2023/09/29 11:17:08;;;;;;;15.52;9.48;;;;;;;;;;5006653;28;20030;-68
2023/09/29 11:19:33;;;;;;;18.73;9.30;;;;;;;;;;5011246;28;20022;-68
2023/09/29 11:22:01;;;;;;;17.15;9.15;;;;;;;;;;5017657;28;20053;-68
2023/09/29 11:24:38;;;;;;;15.70;9.25;;;;;;;;;;5013773;28;20037;-68
2023/09/29 11:27:05;;;;;;;16.08;8.30;;;;;;;;;;5008674;28;20022;-68
2023/09/29 11:29:31;;;;;;;22.67;8.88;;;;;;;;;;5003474;28;20097;-67
2023/09/29 11:32:04;;;;;;;22.52;8.85;;;;;;;;;;5008409;28;20069;-67
2023/09/29 11:34:31;;;;;;;12.75;7.80;;;;;;;;;;5001436;28;20025;-67
2023/09/29 11:36:57;;;;;;;14.35;7.90;;;;;;;;;;5010757;28;20026;-67
2023/09/29 11:39:22;;;;;;;14.30;7.22;;;;;;;;;;5013111;28;20369;-67
2023/09/29 11:41:48;;;;;;;13.50;7.05;;;;;;;;;;5027228;28;20041;-67
2023/09/29 11:44:14;;;;;;;17.85;8.10;;;;;;;;;;5032962;28;20018;-68
2023/09/29 11:46:40;;;;;;;14.55;7.60;;;;;;;;;;5017851;28;20104;-68
2023/09/29 11:49:06;;;;;;;16.13;7.22;;;;;;;;;;5013419;28;20161;-68
2023/09/29 11:51:31;;;;;;;13.82;7.72;;;;;;;;;;5017199;28;20025;-68
2023/09/29 11:53:56;;;;;;;15.25;8.45;;;;;;;;;;5032989;28;20021;-68
2023/09/29 11:56:22;;;;;;;14.10;7.20;;;;;;;;;;5032803;28;20052;-69
2023/09/29 11:58:47;;;;;;;19.95;8.38;;;;;;;;;;5026561;28;20037;-69
2023/09/29 12:01:13;;;;;;;15.15;7.65;;;;;;;;;;5013163;28;20096;-68
2023/09/29 12:03:40;;;;;;;15.18;8.55;;;;;;;;;;5013259;28;20042;-68
2023/09/29 12:06:05;;;;;;;19.20;8.07;;;;;;;;;;5017253;28;20025;-69
2023/09/29 12:08:31;;;;;;;12.70;7.35;;;;;;;;;;5031294;28;20359;-69
2023/09/29 12:10:57;;;;;;;13.27;6.35;;;;;;;;;;5028888;28;20384;-68
2023/09/29 12:13:22;;;;;;;15.80;7.13;;;;;;;;;;5013109;28;20021;-68
2023/09/29 12:15:48;;;;;;;11.20;7.68;;;;;;;;;;5012861;28;20041;-69
2023/09/29 12:18:14;;;;;;;17.05;7.35;;;;;;;;;;5008382;28;20019;-69
2023/09/29 12:20:39;;;;;;;11.85;7.88;;;;;;;;;;5005004;28;20082;-69
2023/09/29 12:23:08;;;;;;;19.95;8.82;;;;;;;;;;5033082;28;20026;-68
2023/09/29 12:25:38;;;;;;;17.55;7.30;;;;;;;;;;5032374;28;20040;-69
2023/09/29 12:28:04;;;;;;;13.43;8.45;;;;;;;;;;5011640;28;20498;-68
2023/09/29 12:30:30;;;;;;;15.25;7.30;;;;;;;;;;5015862;28;20069;-68
2023/09/29 12:32:55;;;;;;;17.30;8.48;;;;;;;;;;4998886;28;20041;-68
2023/09/29 12:35:21;;;;;;;15.88;8.00;;;;;;;;;;5016196;28;20037;-68
2023/09/29 12:37:46;;;;;;;14.80;7.88;;;;;;;;;;5015476;28;20476;-68
2023/09/29 12:40:14;;;;;;;15.40;8.77;;;;;;;;;;5036109;28;20441;-68
2023/09/29 12:42:46;;;;;;;15.98;8.23;;;;;;;;;;5031871;28;20510;-68
2023/09/29 12:45:17;;;;;;;13.05;8.65;;;;;;;;;;5014771;28;20491;-68
2023/09/29 12:47:43;;;;;;;19.73;8.82;;;;;;;;;;5014973;28;20030;-68
2023/09/29 12:50:08;;;;;;;16.98;8.98;;;;;;;;;;5015362;28;20045;-68
2023/09/29 12:52:34;;;;;;;17.80;7.47;;;;;;;;;;5011663;28;20023;-68
2023/09/29 12:55:02;;;;;;;14.98;8.45;;;;;;;;;;5006430;28;20025;-68
2023/09/29 12:57:28;;;;;;;20.55;8.52;;;;;;;;;;5035002;28;20040;-68
2023/09/29 12:59:53;;;;;;;17.42;8.25;;;;;;;;;;5032235;28;20025;-68
2023/09/29 13:02:20;;;;;;;15.15;7.97;;;;;;;;;;5023048;28;20388;-68
2023/09/29 13:04:45;;;;;;;15.98;8.68;;;;;;;;;;5003876;28;20153;-68
2023/09/29 13:07:11;;;;;;;21.95;9.57;;;;;;;;;;5004701;28;20109;-68
2023/09/29 13:09:37;;;;;;;13.60;7.70;;;;;;;;;;5006248;28;20468;-68
2023/09/29 13:12:04;;;;;;;14.90;8.13;;;;;;;;;;5012466;28;20037;-68
2023/09/29 13:14:30;;;;;;;17.00;8.82;;;;;;;;;;5011664;28;20148;-69
2023/09/29 13:16:55;;;;;;;12.98;8.05;;;;;;;;;;5010492;28;20091;-68
2023/09/29 13:19:21;;;;;;;16.40;8.05;;;;;;;;;;5011984;28;20033;-73
2023/09/29 13:21:46;;;;;;;16.08;8.02;;;;;;;;;;5008030;28;20025;-72
2023/09/29 13:24:12;;;;;;;17.20;8.25;;;;;;;;;;5007634;28;20032;-72
2023/09/29 13:26:40;;;;;;;16.15;8.27;;;;;;;;;;5010088;28;20519;-72
2023/09/29 13:29:05;;;;;;;14.88;8.15;;;;;;;;;;5007151;28;20021;-73
2023/09/29 13:31:30;;;;;;;15.02;8.43;;;;;;;;;;5005761;28;20029;-72
2023/09/29 13:33:55;;;;;;;17.80;8.35;;;;;;;;;;5010511;28;20038;-72
2023/09/29 13:36:21;;;;;;;24.00;10.25;;;;;;;;;;5008101;28;20034;-73
2023/09/29 13:38:46;;;;;;;19.08;8.65;;;;;;;;;;5006501;28;20053;-73
2023/09/29 13:41:11;;;;;;;18.35;9.32;;;;;;;;;;5010785;28;20108;-71
2023/09/29 13:43:38;;;;;;;21.95;9.65;;;;;;;;;;5010209;28;20030;-72
2023/09/29 13:46:08;;;;;;;14.80;9.50;;;;;;;;;;5005345;28;20080;-72
2023/09/29 13:48:33;;;;;;;22.15;10.00;;;;;;;;;;5010141;28;20022;-72
2023/09/29 13:51:03;;;;;;;21.95;10.10;;;;;;;;;;5006503;28;20072;-73
2023/09/29 13:53:28;;;;;;;26.42;10.13;;;;;;;;;;5004262;28;20026;-72
2023/09/29 13:55:54;;;;;;;20.17;10.27;;;;;;;;;;5010615;28;20039;-71
2023/09/29 14:00:52;;;;;;;23.10;10.50;;;;;;;;;;5032026;28;20045;-72
2023/09/29 14:03:18;;;;;;;17.95;9.63;;;;;;;;;;5034259;28;20403;-72
2023/09/29 14:05:44;;;;;;;25.02;10.43;;;;;;;;;;5033768;28;20547;-72
2023/09/29 14:08:09;;;;;;;22.73;11.55;;;;;;;;;;5034296;28;20018;-72
2023/09/29 14:10:35;;;;;;;20.20;9.88;;;;;;;;;;5034375;28;20063;-72
2023/09/29 14:13:00;;;;;;;19.63;9.73;;;;;;;;;;5014473;28;20052;-71
2023/09/29 14:15:26;;;;;;;16.67;9.35;;;;;;;;;;5029717;28;20037;-71
2023/09/29 14:17:51;;;;;;;17.98;9.95;;;;;;;;;;5016148;28;20111;-70
2023/09/29 14:20:17;;;;;;;24.30;9.23;;;;;;;;;;5034096;28;20506;-71
2023/09/29 14:22:42;;;;;;;21.45;9.95;;;;;;;;;;5034237;28;20059;-70